createdAt,value
2022-11-18T00:01:30.160Z,68.13
2022-11-18T00:03:58.720Z,69.88
2022-11-18T00:06:30.156Z,83.40
2022-11-18T00:09:00.123Z,67.35
2022-11-18T00:11:46.471Z,72.15
2022-11-18T00:14:23.020Z,75.97
2022-11-18T00:16:53.795Z,83.63
2022-11-18T00:19:23.239Z,70.80
2022-11-18T00:21:52.756Z,65.82
2022-11-18T00:24:23.639Z,70.55
2022-11-18T00:26:52.248Z,65.00
2022-11-18T00:29:21.513Z,64.60
2022-11-18T00:31:50.416Z,64.32
2022-11-18T00:34:19.525Z,66.45
2022-11-18T00:36:49.114Z,64.78
2022-11-18T00:39:20.628Z,72.20
2022-11-18T00:42:07.144Z,71.13
2022-11-18T00:44:35.826Z,59.88
2022-11-18T00:47:04.135Z,77.45
2022-11-18T00:49:32.314Z,66.88
2022-11-18T00:52:01.137Z,60.83
2022-11-18T00:54:30.746Z,68.97
2022-11-18T00:56:59.025Z,56.03
2022-11-18T00:59:27.393Z,59.75
2022-11-18T01:01:55.629Z,57.92
2022-11-18T01:04:23.792Z,56.13
2022-11-18T01:06:52.028Z,56.00
2022-11-18T01:09:20.275Z,64.93
2022-11-18T01:12:07.121Z,57.00
2022-11-18T01:14:35.200Z,55.33
2022-11-18T01:17:03.377Z,56.38
2022-11-18T01:19:31.589Z,57.72
2022-11-18T01:22:02.939Z,52.53
2022-11-18T01:24:31.438Z,53.03
2022-11-18T01:27:01.949Z,53.83
2022-11-18T01:29:30.563Z,53.03
2022-11-18T01:32:23.568Z,51.85
2022-11-18T01:34:51.611Z,50.15
2022-11-18T01:37:19.902Z,49.80
2022-11-18T01:39:48.090Z,55.13
2022-11-18T01:42:18.918Z,50.67
2022-11-18T01:45:21.088Z,47.95
2022-11-18T01:47:56.860Z,53.80
2022-11-18T01:50:25.605Z,50.28
2022-11-18T01:52:58.631Z,46.67
2022-11-18T01:55:29.616Z,53.72
2022-11-18T01:58:06.942Z,49.63
2022-11-18T02:00:35.473Z,52.95
2022-11-18T02:03:05.819Z,50.15
2022-11-18T02:05:37.096Z,51.60
2022-11-18T02:08:07.672Z,50.45
2022-11-18T02:10:35.800Z,53.83
2022-11-18T02:13:05.619Z,50.50
2022-11-18T02:15:47.526Z,53.17
2022-11-18T02:18:25.457Z,50.95
2022-11-18T02:21:01.002Z,53.80
2022-11-18T02:23:58.392Z,50.80
2022-11-18T02:26:47.891Z,53.95
2022-11-18T02:29:20.491Z,52.00
2022-11-18T02:31:54.707Z,53.40
2022-11-18T02:34:33.424Z,52.88
2022-11-18T02:37:06.898Z,51.38
2022-11-18T02:39:39.124Z,55.13
2022-11-18T02:42:10.721Z,51.33
2022-11-18T02:44:45.036Z,50.90
2022-11-18T02:47:16.746Z,53.17
2022-11-18T02:49:49.831Z,53.22
2022-11-18T02:52:20.244Z,50.90
2022-11-18T02:54:50.789Z,52.22
2022-11-18T02:57:21.903Z,54.63
2022-11-18T02:59:51.442Z,52.63
2022-11-18T03:02:21.298Z,51.40
2022-11-18T03:04:52.689Z,54.38
2022-11-18T03:07:27.082Z,56.17
2022-11-18T03:09:56.311Z,56.90
2022-11-18T03:12:33.060Z,52.63
2022-11-18T03:15:12.677Z,58.38
2022-11-18T03:17:48.678Z,55.95
2022-11-18T03:20:22.661Z,58.78
2022-11-18T03:22:55.356Z,61.33
2022-11-18T03:27:58.649Z,62.92
2022-11-18T03:30:31.027Z,65.40
2022-11-18T03:33:03.862Z,61.92
2022-11-18T03:35:36.231Z,70.25
2022-11-18T03:38:11.079Z,69.30
2022-11-18T03:40:42.678Z,66.38
2022-11-18T03:43:14.267Z,72.97
2022-11-18T03:45:47.999Z,71.00
2022-11-18T03:48:18.692Z,69.40
2022-11-18T03:53:19.695Z,73.45
2022-11-18T03:55:52.282Z,72.03
2022-11-18T03:58:25.853Z,71.50
2022-11-18T04:01:00.515Z,68.50
2022-11-18T04:03:28.938Z,70.07
2022-11-18T04:06:04.530Z,70.50
2022-11-18T04:08:40.204Z,71.57
2022-11-18T04:11:35.058Z,72.72
2022-11-18T04:14:05.137Z,73.53
2022-11-18T04:16:40.633Z,76.43
2022-11-18T04:19:08.764Z,72.18
2022-11-18T04:21:36.967Z,74.60
2022-11-18T04:24:06.707Z,80.10
2022-11-18T04:26:34.820Z,82.32
2022-11-18T04:29:02.962Z,82.63
2022-11-18T04:31:31.094Z,78.80
2022-11-18T04:34:00.642Z,82.65
2022-11-18T04:36:30.872Z,85.55
2022-11-18T04:38:59.003Z,83.45
2022-11-18T04:41:47.344Z,87.18
2022-11-18T04:44:15.701Z,88.43
2022-11-18T04:46:45.416Z,86.53
2022-11-18T04:49:16.613Z,91.05
2022-11-18T04:51:46.152Z,90.65
2022-11-18T04:54:15.154Z,90.25
2022-11-18T04:56:48.684Z,89.68
2022-11-18T04:59:23.073Z,95.25
2022-11-18T05:01:51.375Z,92.68
2022-11-18T05:04:22.875Z,93.40
2022-11-18T05:06:54.659Z,93.20
2022-11-18T05:09:26.085Z,94.97
2022-11-18T05:12:15.849Z,94.63
2022-11-18T05:14:49.310Z,99.78
2022-11-18T05:17:18.765Z,94.40
2022-11-18T05:19:48.227Z,102.40
2022-11-18T05:22:16.556Z,98.82
2022-11-18T05:24:44.699Z,98.60
2022-11-18T05:27:13.174Z,107.15
2022-11-18T05:29:41.319Z,101.10
2022-11-18T05:32:11.838Z,101.15
2022-11-18T05:34:42.902Z,98.35
2022-11-18T05:37:12.759Z,94.57
2022-11-18T05:39:41.089Z,98.90
2022-11-18T05:42:32.178Z,89.28
2022-11-18T05:45:00.356Z,89.57
2022-11-18T05:47:48.596Z,93.78
2022-11-18T05:50:21.312Z,88.47
2022-11-18T05:52:51.163Z,91.30
2022-11-18T05:55:20.701Z,83.55
2022-11-18T05:57:49.560Z,83.80
2022-11-18T06:00:18.935Z,75.32
2022-11-18T06:02:50.206Z,76.68
2022-11-18T06:05:19.862Z,75.07
2022-11-18T06:07:48.059Z,74.82
2022-11-18T06:10:21.564Z,70.32
2022-11-18T06:12:51.983Z,64.13
2022-11-18T06:15:22.443Z,67.10
2022-11-18T06:17:56.012Z,56.70
2022-11-18T06:20:24.260Z,58.95
2022-11-18T06:22:55.925Z,53.28
2022-11-18T06:25:26.059Z,51.47
2022-11-18T06:27:57.343Z,56.17
2022-11-18T06:30:25.552Z,56.17
2022-11-18T06:32:53.720Z,56.58
2022-11-18T06:35:21.880Z,54.00
2022-11-18T06:37:50.092Z,53.60
2022-11-18T06:40:18.754Z,54.63
2022-11-18T06:43:05.803Z,54.65
2022-11-18T06:45:33.949Z,60.83
2022-11-18T06:48:02.203Z,54.80
2022-11-18T06:50:30.707Z,55.55
2022-11-18T06:53:01.671Z,53.03
2022-11-18T06:55:29.719Z,52.35
2022-11-18T06:57:59.342Z,65.25
2022-11-18T07:00:27.449Z,53.22
2022-11-18T07:02:55.650Z,56.05
2022-11-18T07:05:23.821Z,51.88
2022-11-18T07:07:52.156Z,55.50
2022-11-18T07:10:21.556Z,52.80
2022-11-18T07:12:49.668Z,53.53
2022-11-18T07:15:19.177Z,54.80
2022-11-18T07:17:47.492Z,58.53
2022-11-18T07:20:15.900Z,54.95
2022-11-18T07:22:44.172Z,55.15
2022-11-18T07:25:12.265Z,52.53
2022-11-18T07:27:40.430Z,58.70
2022-11-18T07:30:09.615Z,60.67
2022-11-18T07:32:41.419Z,61.15
2022-11-18T07:35:10.623Z,52.45
2022-11-18T07:37:41.166Z,57.40
2022-11-18T07:40:10.955Z,54.13
2022-11-18T07:42:43.600Z,56.78
2022-11-18T07:45:24.604Z,54.53
2022-11-18T07:47:54.134Z,52.30
2022-11-18T07:50:22.439Z,56.17
2022-11-18T07:52:50.548Z,54.83
2022-11-18T07:55:18.712Z,56.28
2022-11-18T07:57:46.915Z,60.17
2022-11-18T08:00:15.957Z,53.13
2022-11-18T08:02:44.465Z,57.10
2022-11-18T08:05:17.894Z,58.75
2022-11-18T08:07:46.606Z,55.75
2022-11-18T08:10:14.898Z,55.00
2022-11-18T08:12:42.998Z,51.15
2022-11-18T08:15:13.205Z,58.55
2022-11-18T08:17:41.409Z,53.97
2022-11-18T08:20:10.457Z,57.65
2022-11-18T08:22:40.011Z,53.33
2022-11-18T08:25:09.393Z,52.42
2022-11-18T08:27:37.609Z,50.25
2022-11-18T08:30:06.629Z,49.60
2022-11-18T08:32:34.849Z,50.80
2022-11-18T08:35:07.989Z,50.60
2022-11-18T08:37:40.508Z,48.55
2022-11-18T08:40:09.547Z,54.33
2022-11-18T08:42:38.511Z,53.90
2022-11-18T08:45:08.866Z,53.10
2022-11-18T08:47:37.354Z,55.25
2022-11-18T08:50:06.721Z,53.85
2022-11-18T08:52:35.270Z,48.63
2022-11-18T08:55:05.829Z,50.90
2022-11-18T08:57:34.094Z,50.13
2022-11-18T09:00:02.278Z,50.78
2022-11-18T09:02:30.350Z,53.05
2022-11-18T09:05:00.678Z,51.10
2022-11-18T09:07:28.891Z,51.85
2022-11-18T09:09:57.448Z,55.60
2022-11-18T09:12:27.074Z,50.08
2022-11-18T09:17:43.617Z,64.63
2022-11-18T09:20:12.212Z,72.32
2022-11-18T09:22:40.387Z,59.80
2022-11-18T09:25:09.669Z,62.35
2022-11-18T09:27:39.363Z,64.72
2022-11-18T09:30:08.661Z,96.40
2022-11-18T09:32:36.834Z,46.85
2022-11-18T09:35:05.809Z,50.42
2022-11-18T09:37:34.620Z,43.78
2022-11-18T09:40:06.137Z,40.30
2022-11-18T09:42:51.532Z,41.58
2022-11-18T09:45:25.804Z,44.60
2022-11-18T09:47:58.070Z,47.47
2022-11-18T09:50:48.364Z,41.92
2022-11-18T09:53:20.989Z,48.00
2022-11-18T09:55:50.987Z,52.65
2022-11-18T09:58:32.393Z,39.08
2022-11-18T10:01:01.107Z,82.20
2022-11-18T10:03:31.643Z,56.78
2022-11-18T10:06:07.103Z,41.85
2022-11-18T10:08:41.221Z,47.92
2022-11-18T10:11:15.613Z,55.80
2022-11-18T10:13:56.194Z,82.35
2022-11-18T10:16:34.827Z,52.50
2022-11-18T10:19:12.361Z,83.93
2022-11-18T10:21:52.501Z,50.15
2022-11-18T10:24:23.774Z,59.72
2022-11-18T10:26:57.156Z,50.47
2022-11-18T10:29:27.146Z,36.72
2022-11-18T10:32:04.277Z,43.63
2022-11-18T10:34:33.796Z,29.40
2022-11-18T10:37:03.636Z,41.03
2022-11-18T10:39:31.845Z,89.53
2022-11-18T10:42:04.100Z,51.75
2022-11-18T10:44:36.657Z,83.00
2022-11-18T10:47:29.238Z,22.98
2022-11-18T10:50:00.072Z,60.70
2022-11-18T10:52:29.761Z,117.18
2022-11-18T10:55:22.029Z,131.70
2022-11-18T10:57:53.430Z,24.03
2022-11-18T11:00:42.441Z,59.85
2022-11-18T11:03:36.344Z,56.60
2022-11-18T11:06:38.693Z,61.75
2022-11-18T11:09:09.699Z,28.90
2022-11-18T11:11:40.046Z,81.20
2022-11-18T11:14:18.889Z,69.47
2022-11-18T11:17:09.934Z,41.75
2022-11-18T11:19:52.242Z,27.35
2022-11-18T11:22:20.793Z,68.25
2022-11-18T11:24:49.047Z,48.47
2022-11-18T11:30:21.931Z,61.03
2022-11-18T11:33:19.811Z,64.88
2022-11-18T11:36:08.158Z,68.38
2022-11-18T11:38:50.066Z,26.88
2022-11-18T11:41:23.973Z,41.78
2022-11-18T11:44:13.347Z,40.28
2022-11-18T11:47:09.157Z,55.20
2022-11-18T11:49:55.020Z,39.92
2022-11-18T11:52:34.125Z,36.25
2022-11-18T11:55:18.046Z,33.35
2022-11-18T11:57:59.750Z,30.30
2022-11-18T12:00:28.833Z,34.33
2022-11-18T12:03:12.687Z,36.55
2022-11-18T12:05:43.177Z,33.08
2022-11-18T12:08:17.329Z,66.00
2022-11-18T12:10:50.032Z,29.77
2022-11-18T12:16:12.399Z,29.33
2022-11-18T12:18:44.745Z,24.08
2022-11-18T12:21:46.701Z,22.63
2022-11-18T12:24:35.697Z,26.27
2022-11-18T12:27:06.858Z,20.02
2022-11-18T12:29:43.026Z,19.40
2022-11-18T12:32:30.970Z,23.98
2022-11-18T12:35:02.362Z,20.40
2022-11-18T12:38:01.643Z,19.58
2022-11-18T12:40:37.711Z,22.50
2022-11-18T12:43:24.155Z,21.48
2022-11-18T12:45:55.379Z,26.38
2022-11-18T12:48:40.304Z,27.38
2022-11-18T12:51:46.122Z,25.13
2022-11-18T12:54:27.509Z,21.48
2022-11-18T12:57:00.536Z,20.95
2022-11-18T12:59:33.758Z,30.20
2022-11-18T13:02:21.836Z,21.20
2022-11-18T13:05:07.800Z,20.90
2022-11-18T13:08:01.676Z,17.65
2022-11-18T13:10:36.120Z,28.58
2022-11-18T13:13:06.988Z,19.48
2022-11-18T13:15:59.960Z,21.55
2022-11-18T13:18:28.363Z,19.40
2022-11-18T13:20:58.289Z,23.73
2022-11-18T13:23:46.994Z,24.65
2022-11-18T13:26:29.287Z,18.55
2022-11-18T13:29:16.877Z,39.78
2022-11-18T13:31:55.360Z,25.52
2022-11-18T13:34:25.986Z,18.98
2022-11-18T13:36:55.661Z,82.20
2022-11-18T13:39:26.262Z,51.20
2022-11-18T13:42:01.767Z,33.70
2022-11-18T13:44:35.572Z,27.83
2022-11-18T13:47:10.669Z,20.80
2022-11-18T13:49:50.614Z,18.70
2022-11-18T13:52:24.160Z,154.02
2022-11-18T13:54:54.571Z,18.95
2022-11-18T13:59:56.358Z,22.33
2022-11-18T14:02:24.876Z,19.27
2022-11-18T14:04:57.432Z,21.48
2022-11-18T14:07:34.086Z,25.40
2022-11-18T14:10:04.405Z,23.10
2022-11-18T14:12:34.088Z,27.83
2022-11-18T14:15:22.229Z,30.25
2022-11-18T14:17:56.109Z,26.55
2022-11-18T14:20:25.398Z,49.00
2022-11-18T14:22:56.953Z,18.58
2022-11-18T14:25:29.359Z,21.27
2022-11-18T14:28:11.325Z,36.33
2022-11-18T14:30:41.807Z,41.42
2022-11-18T14:33:15.044Z,35.17
2022-11-18T14:35:45.512Z,27.83
2022-11-18T14:38:36.546Z,25.17
2022-11-18T14:41:07.143Z,45.47
2022-11-18T14:46:13.540Z,45.95
2022-11-18T14:48:41.838Z,23.27
2022-11-18T14:51:13.848Z,39.05
2022-11-18T14:53:42.326Z,24.48
2022-11-18T14:56:16.349Z,20.25
2022-11-18T14:58:44.507Z,32.47
2022-11-18T15:01:14.485Z,18.13
2022-11-18T15:03:42.745Z,12.85
2022-11-18T15:06:15.201Z,15.88
2022-11-18T15:08:43.988Z,14.00
2022-11-18T15:11:12.667Z,15.77
2022-11-18T15:13:41.020Z,14.63
2022-11-18T15:16:16.924Z,14.55
2022-11-18T15:18:47.749Z,10.95
2022-11-18T15:21:16.349Z,15.18
2022-11-18T15:23:44.793Z,15.18
2022-11-18T15:26:19.620Z,15.30
2022-11-18T15:28:48.320Z,12.57
2022-11-18T15:31:18.834Z,10.32
2022-11-18T15:33:48.465Z,14.65
2022-11-18T15:36:18.752Z,11.48
2022-11-18T15:38:47.557Z,16.52
2022-11-18T15:41:18.540Z,12.52
2022-11-18T15:43:46.992Z,15.07
2022-11-18T15:46:17.289Z,12.27
2022-11-18T15:48:45.436Z,12.18
2022-11-18T15:51:13.846Z,11.48
2022-11-18T15:53:42.060Z,13.13
2022-11-18T15:56:24.498Z,14.52
2022-11-18T15:58:56.797Z,15.38
2022-11-18T16:01:28.225Z,13.98
2022-11-18T16:03:59.120Z,15.60
2022-11-18T16:06:27.833Z,18.65
2022-11-18T16:09:00.031Z,13.00
2022-11-18T16:11:46.283Z,11.85
2022-11-18T16:14:16.855Z,14.60
2022-11-18T16:16:47.828Z,37.17
2022-11-18T16:19:17.408Z,37.63
2022-11-18T16:21:49.332Z,36.53
2022-11-18T16:24:19.753Z,43.30
2022-11-18T16:26:48.249Z,19.83
2022-11-18T16:29:17.838Z,21.73
2022-11-18T16:31:52.289Z,27.10
2022-11-18T16:34:22.197Z,33.97
2022-11-18T16:36:52.013Z,38.50
2022-11-18T16:39:24.911Z,12.57
2022-11-18T16:41:53.972Z,27.33
2022-11-18T16:44:22.275Z,55.78
2022-11-18T16:46:54.257Z,46.90
2022-11-18T16:49:24.378Z,56.88
2022-11-18T16:51:55.112Z,44.00
2022-11-18T16:54:24.333Z,67.53
2022-11-18T16:56:54.639Z,31.95
2022-11-18T16:59:26.742Z,29.95
2022-11-18T17:01:58.013Z,48.75
2022-11-18T17:04:28.641Z,70.28
2022-11-18T17:06:59.738Z,67.07
2022-11-18T17:09:28.168Z,36.10
2022-11-18T17:11:58.447Z,59.88
2022-11-18T17:14:27.121Z,60.45
2022-11-18T17:16:59.083Z,103.70
2022-11-18T17:19:27.203Z,34.92
2022-11-18T17:21:55.738Z,60.38
2022-11-18T17:24:25.404Z,34.17
2022-11-18T17:26:54.490Z,22.50
2022-11-18T17:29:22.664Z,52.47
2022-11-18T17:31:51.003Z,57.13
2022-11-18T17:34:23.113Z,176.80
2022-11-18T17:36:51.658Z,39.70
2022-11-18T17:39:20.779Z,35.28
2022-11-18T17:42:06.642Z,30.27
2022-11-18T17:44:34.765Z,48.97
2022-11-18T17:47:03.507Z,73.15
2022-11-18T17:49:33.152Z,85.93
2022-11-18T17:52:01.280Z,74.88
2022-11-18T17:54:29.428Z,68.30
2022-11-18T17:56:57.657Z,30.77
2022-11-18T17:59:25.799Z,44.78
2022-11-18T18:01:58.975Z,31.65
2022-11-18T18:04:28.063Z,75.38
2022-11-18T18:06:57.657Z,38.30
2022-11-18T18:09:30.497Z,38.42
2022-11-18T18:11:59.974Z,29.33
2022-11-18T18:14:27.233Z,36.72
2022-11-18T18:16:55.605Z,32.67
2022-11-18T18:19:24.625Z,23.73
2022-11-18T18:21:53.416Z,19.90
2022-11-18T18:24:24.025Z,23.10
2022-11-18T18:26:52.133Z,20.83
2022-11-18T18:29:20.319Z,20.98
2022-11-18T18:31:48.530Z,46.67
2022-11-18T18:34:17.290Z,30.65
2022-11-18T18:36:47.796Z,39.05
2022-11-18T18:39:16.142Z,34.83
2022-11-18T18:41:45.756Z,41.22
2022-11-18T18:44:18.607Z,50.67
2022-11-18T18:46:45.965Z,30.27
2022-11-18T18:49:15.340Z,56.70
2022-11-18T18:51:45.221Z,40.60
2022-11-18T18:54:15.477Z,31.23
2022-11-18T18:56:45.869Z,45.97
2022-11-18T18:59:15.083Z,47.75
2022-11-18T19:01:43.389Z,46.03
2022-11-18T19:04:14.085Z,40.15
2022-11-18T19:07:01.287Z,46.60
2022-11-18T19:09:29.624Z,39.60
2022-11-18T19:12:16.585Z,26.75
2022-11-18T19:14:44.883Z,47.63
2022-11-18T19:17:13.469Z,29.88
2022-11-18T19:20:00.525Z,38.90
2022-11-18T19:22:31.213Z,41.85
2022-11-18T19:25:02.422Z,32.42
2022-11-18T19:27:31.980Z,102.60
2022-11-18T19:30:00.670Z,83.32
2022-11-18T19:32:28.893Z,89.32
2022-11-18T19:34:57.127Z,180.82
2022-11-18T19:37:25.253Z,45.35
2022-11-18T19:39:56.088Z,67.85
2022-11-18T19:42:24.351Z,83.60
2022-11-18T19:44:54.210Z,49.53
2022-11-18T19:47:22.392Z,34.30
2022-11-18T19:49:50.503Z,40.65
2022-11-18T19:52:18.846Z,32.53
2022-11-18T19:54:47.066Z,69.28
2022-11-18T19:57:15.693Z,47.20
2022-11-18T19:59:46.395Z,44.85
2022-11-18T20:02:16.088Z,59.03
2022-11-18T20:05:04.583Z,52.90
2022-11-18T20:07:32.713Z,63.15
2022-11-18T20:10:01.897Z,37.10
2022-11-18T20:12:35.265Z,37.65
2022-11-18T20:15:05.247Z,45.25
2022-11-18T20:17:34.745Z,43.85
2022-11-18T20:20:03.072Z,48.72
2022-11-18T20:22:31.430Z,58.10
2022-11-18T20:25:01.336Z,145.50
2022-11-18T20:27:29.618Z,56.80
2022-11-18T20:29:57.783Z,53.25
2022-11-18T20:32:25.866Z,40.83
2022-11-18T20:34:55.466Z,46.35
2022-11-18T20:37:27.860Z,42.25
2022-11-18T20:39:56.593Z,43.95
2022-11-18T20:42:44.125Z,63.17
2022-11-18T20:45:12.623Z,37.45
2022-11-18T20:47:40.806Z,31.25
2022-11-18T20:50:10.660Z,41.25
2022-11-18T20:52:38.769Z,32.65
2022-11-18T20:55:07.465Z,42.58
2022-11-18T20:57:36.976Z,40.55
2022-11-18T21:00:06.404Z,39.88
2022-11-18T21:02:34.628Z,38.15
2022-11-18T21:05:02.864Z,30.88
2022-11-18T21:07:33.761Z,34.70
2022-11-18T21:10:02.479Z,59.33
2022-11-18T21:12:30.810Z,37.90
2022-11-18T21:14:57.921Z,39.28
2022-11-18T21:17:26.182Z,99.13
2022-11-18T21:19:54.374Z,38.10
2022-11-18T21:22:21.606Z,39.88
2022-11-18T21:24:53.657Z,66.90
2022-11-18T21:29:50.704Z,56.47
2022-11-18T21:32:18.928Z,41.85
2022-11-18T21:34:47.119Z,40.67
2022-11-18T21:37:15.382Z,38.47
2022-11-18T21:39:46.364Z,26.13
2022-11-18T21:42:16.967Z,30.73
2022-11-18T21:44:45.273Z,31.48
2022-11-18T21:47:13.487Z,26.95
2022-11-18T21:49:41.627Z,30.48
2022-11-18T21:52:10.066Z,22.10
2022-11-18T21:54:38.351Z,27.83
2022-11-18T21:57:06.486Z,26.80
2022-11-18T21:59:36.043Z,23.98
2022-11-18T22:02:04.195Z,24.75
2022-11-18T22:04:49.715Z,20.63
2022-11-18T22:07:17.889Z,51.40
2022-11-18T22:09:46.124Z,69.05
2022-11-18T22:12:14.342Z,126.32
2022-11-18T22:14:43.994Z,85.40
2022-11-18T22:17:12.131Z,51.55
2022-11-18T22:19:40.180Z,37.38
2022-11-18T22:22:08.349Z,44.95
2022-11-18T22:24:36.468Z,55.28
2022-11-18T22:27:09.921Z,56.10
2022-11-18T22:29:39.478Z,138.55
2022-11-18T22:32:11.457Z,54.90
2022-11-18T22:34:39.627Z,64.68
2022-11-18T22:37:07.907Z,50.47
2022-11-18T22:39:36.036Z,31.73
2022-11-18T22:42:21.465Z,35.95
2022-11-18T22:44:51.908Z,34.67
2022-11-18T22:47:21.434Z,32.25
2022-11-18T22:49:53.499Z,33.92
2022-11-18T22:52:24.316Z,34.10
2022-11-18T22:54:52.472Z,28.75
2022-11-18T22:57:20.742Z,33.30
2022-11-18T22:59:48.847Z,59.78
2022-11-18T23:02:16.996Z,54.65
2022-11-18T23:04:46.363Z,32.65
2022-11-18T23:07:14.544Z,31.30
2022-11-18T23:09:42.665Z,31.50
2022-11-18T23:12:28.122Z,28.23
2022-11-18T23:14:56.422Z,28.30
2022-11-18T23:17:24.568Z,29.13
2022-11-18T23:19:54.104Z,34.75
2022-11-18T23:22:22.236Z,36.90
2022-11-18T23:24:50.365Z,31.33
2022-11-18T23:27:18.489Z,36.17
2022-11-18T23:29:46.588Z,31.55
2022-11-18T23:32:14.740Z,34.88
2022-11-18T23:34:42.879Z,32.20
2022-11-18T23:37:13.583Z,34.45
2022-11-18T23:39:41.730Z,38.38
2022-11-18T23:42:09.891Z,35.92
2022-11-18T23:44:47.181Z,41.95
2022-11-18T23:47:17.623Z,33.53
2022-11-18T23:49:45.761Z,38.70
2022-11-18T23:52:15.864Z,48.28
2022-11-18T23:54:43.981Z,36.08
2022-11-18T23:57:12.236Z,35.15
2022-11-18T23:59:40.390Z,36.22
